createdAt,value
2018-11-04T00:04:46.762Z,20.40
2018-11-04T00:07:19.905Z,20.40
2018-11-04T00:09:52.680Z,20.40
2018-11-04T00:12:25.720Z,20.30
2018-11-04T00:20:15.177Z,20.20
2018-11-04T00:22:48.278Z,20.10
2018-11-04T00:25:21.001Z,20.00
2018-11-04T00:27:54.045Z,20.00
2018-11-04T00:30:26.811Z,20.00
2018-11-04T00:32:59.731Z,20.00
2018-11-04T00:35:32.411Z,20.00
2018-11-04T00:38:05.420Z,19.90
2018-11-04T00:40:38.112Z,19.90
2018-11-04T00:43:10.873Z,19.90
2018-11-04T00:45:43.581Z,20.00
2018-11-04T00:48:16.484Z,20.00
2018-11-04T00:50:49.251Z,20.10
2018-11-04T00:53:22.448Z,20.10
2018-11-04T00:56:01.785Z,20.10
2018-11-04T00:58:34.737Z,20.10
2018-11-04T01:01:08.065Z,20.00
2018-11-04T01:03:41.166Z,20.00
2018-11-04T01:06:14.000Z,19.90
2018-11-04T01:08:47.051Z,19.90
2018-11-04T01:11:19.857Z,19.90
2018-11-04T01:13:52.776Z,19.80
2018-11-04T01:16:25.541Z,19.80
2018-11-04T01:18:58.479Z,19.80
2018-11-04T01:21:31.345Z,19.70
2018-11-04T01:24:07.622Z,19.70
2018-11-04T01:26:40.604Z,19.70
2018-11-04T01:29:13.729Z,19.70
2018-11-04T01:31:46.573Z,19.60
2018-11-04T01:34:19.347Z,19.40
2018-11-04T01:36:52.275Z,19.30
2018-11-04T01:39:25.160Z,19.30
2018-11-04T01:41:58.130Z,19.20
2018-11-04T01:44:31.103Z,19.20
2018-11-04T01:47:03.872Z,19.10
2018-11-04T01:49:36.653Z,19.10
2018-11-04T01:52:09.590Z,19.10
2018-11-04T01:54:42.409Z,19.10
2018-11-04T01:57:15.427Z,19.10
2018-11-04T01:59:48.608Z,19.10
2018-11-04T02:02:21.450Z,19.10
2018-11-04T02:04:55.340Z,19.10
2018-11-04T02:07:28.171Z,19.10
2018-11-04T02:10:01.089Z,19.00
2018-11-04T02:12:33.871Z,19.00
2018-11-04T02:15:06.975Z,18.90
2018-11-04T02:17:39.910Z,18.90
2018-11-04T02:20:14.527Z,18.80
2018-11-04T02:22:47.409Z,18.70
2018-11-04T02:25:20.358Z,18.60
2018-11-04T02:27:53.198Z,18.50
2018-11-04T02:30:26.449Z,18.40
2018-11-04T02:32:59.578Z,18.40
2018-11-04T02:35:32.637Z,18.30
2018-11-04T02:38:05.397Z,18.20
2018-11-04T02:43:35.724Z,18.10
2018-11-04T02:46:09.418Z,18.10
2018-11-04T02:48:42.905Z,18.10
2018-11-04T02:51:16.270Z,18.10
2018-11-04T02:53:49.852Z,18.00
2018-11-04T02:56:23.623Z,18.00
2018-11-04T02:58:57.097Z,17.90
2018-11-04T03:01:30.635Z,17.90
2018-11-04T03:04:03.899Z,17.80
2018-11-04T03:06:37.260Z,17.70
2018-11-04T03:09:12.894Z,17.70
2018-11-04T03:11:46.940Z,17.70
2018-11-04T03:14:20.349Z,17.70
2018-11-04T03:16:53.919Z,17.80
2018-11-04T03:19:27.635Z,17.70
2018-11-04T03:22:01.361Z,17.80
2018-11-04T03:24:34.798Z,17.70
2018-11-04T03:27:08.273Z,17.80
2018-11-04T03:29:41.576Z,17.80
2018-11-04T03:32:14.956Z,17.80
2018-11-04T03:34:48.459Z,17.80
2018-11-04T03:37:22.429Z,17.80
2018-11-04T03:39:55.905Z,17.80
2018-11-04T03:42:31.219Z,17.70
2018-11-04T03:45:04.316Z,17.60
2018-11-04T03:47:37.922Z,17.60
2018-11-04T03:50:13.509Z,17.60
2018-11-04T03:52:50.805Z,17.60
2018-11-04T03:55:27.697Z,17.60
2018-11-04T03:58:14.173Z,17.60
2018-11-04T04:00:47.610Z,17.60
2018-11-04T04:03:20.817Z,17.50
2018-11-04T04:05:54.230Z,17.50
2018-11-04T04:08:27.531Z,17.50
2018-11-04T04:11:00.877Z,17.50
2018-11-04T04:13:40.328Z,17.60
2018-11-04T04:16:14.588Z,17.50
2018-11-04T04:18:48.153Z,17.50
2018-11-04T04:21:21.535Z,17.50
2018-11-04T04:23:55.282Z,17.60
2018-11-04T04:26:28.016Z,17.70
2018-11-04T04:29:01.213Z,17.80
2018-11-04T04:31:34.686Z,17.80
2018-11-04T04:34:08.779Z,17.80
2018-11-04T04:36:41.590Z,17.80
2018-11-04T04:39:14.795Z,17.80
2018-11-04T04:41:48.056Z,17.80
2018-11-04T04:44:21.452Z,17.70
2018-11-04T04:46:54.712Z,17.70
2018-11-04T04:49:28.274Z,17.70
2018-11-04T04:52:02.312Z,17.70
2018-11-04T04:54:36.073Z,17.70
2018-11-04T04:57:09.626Z,17.70
2018-11-04T04:59:42.961Z,17.70
2018-11-04T05:02:16.134Z,17.70
2018-11-04T05:04:49.428Z,17.80
2018-11-04T05:07:22.424Z,17.80
2018-11-04T05:09:55.394Z,17.80
2018-11-04T05:12:29.308Z,17.80
2018-11-04T05:15:02.557Z,17.80
2018-11-04T05:17:41.751Z,17.80
2018-11-04T05:20:15.039Z,17.80
2018-11-04T05:22:48.303Z,17.80
2018-11-04T05:25:22.152Z,17.80
2018-11-04T05:28:25.798Z,17.80
2018-11-04T05:30:59.369Z,17.80
2018-11-04T05:36:55.068Z,17.80
2018-11-04T05:39:30.165Z,17.90
2018-11-04T05:42:04.188Z,17.90
2018-11-04T05:44:39.441Z,17.90
2018-11-04T05:47:12.007Z,17.80
2018-11-04T05:49:44.999Z,17.80
2018-11-04T05:52:18.066Z,17.80
2018-11-04T05:54:51.055Z,17.80
2018-11-04T05:57:57.632Z,17.80
2018-11-04T06:00:31.053Z,17.70
2018-11-04T06:03:04.194Z,17.70
2018-11-04T06:05:37.516Z,17.70
2018-11-04T06:08:10.501Z,17.70
2018-11-04T06:10:43.800Z,17.70
2018-11-04T06:13:39.497Z,17.70
2018-11-04T06:16:33.935Z,17.70
2018-11-04T06:19:29.384Z,17.70
2018-11-04T06:22:25.168Z,17.80
2018-11-04T06:25:21.088Z,17.80
2018-11-04T06:27:55.319Z,17.90
2018-11-04T06:30:28.366Z,17.90
2018-11-04T06:33:01.398Z,17.90
2018-11-04T06:35:34.562Z,17.90
2018-11-04T06:38:07.608Z,17.80
2018-11-04T06:40:40.834Z,17.90
2018-11-04T06:43:13.999Z,17.90
2018-11-04T06:45:47.521Z,17.80
2018-11-04T06:48:20.966Z,17.80
2018-11-04T06:50:54.241Z,17.90
2018-11-04T06:53:27.262Z,17.80
2018-11-04T06:56:00.804Z,17.80
2018-11-04T06:58:34.248Z,17.80
2018-11-04T07:01:07.479Z,17.80
2018-11-04T07:03:40.933Z,17.80
2018-11-04T07:06:14.078Z,17.70
2018-11-04T07:08:46.968Z,17.70
2018-11-04T07:11:20.337Z,17.70
2018-11-04T07:13:53.306Z,17.80
2018-11-04T07:16:26.789Z,17.80
2018-11-04T07:19:00.296Z,17.80
2018-11-04T07:21:33.684Z,17.70
2018-11-04T07:24:07.297Z,17.70
2018-11-04T07:26:40.446Z,17.70
2018-11-04T07:29:13.730Z,17.70
2018-11-04T07:31:47.082Z,17.60
2018-11-04T07:34:20.725Z,17.60
2018-11-04T07:36:53.908Z,17.60
2018-11-04T07:39:26.954Z,17.60
2018-11-04T07:42:00.396Z,17.70
2018-11-04T07:44:33.307Z,17.60
2018-11-04T07:47:06.749Z,17.60
2018-11-04T07:49:40.151Z,17.60
2018-11-04T07:52:13.398Z,17.60
2018-11-04T07:54:46.494Z,17.60
2018-11-04T08:00:46.193Z,17.60
2018-11-04T08:03:19.246Z,17.60
2018-11-04T08:05:54.461Z,17.60
2018-11-04T08:08:28.405Z,17.60
2018-11-04T08:11:04.517Z,17.60
2018-11-04T08:13:40.027Z,17.60
2018-11-04T08:16:13.145Z,17.60
2018-11-04T08:18:46.120Z,17.50
2018-11-04T08:21:18.919Z,17.50
2018-11-04T08:23:51.670Z,17.40
2018-11-04T08:26:25.310Z,17.40
2018-11-04T08:28:58.376Z,17.30
2018-11-04T08:34:52.655Z,17.30
2018-11-04T08:37:25.600Z,17.30
2018-11-04T08:39:58.723Z,17.30
2018-11-04T08:42:31.706Z,17.30
2018-11-04T08:45:04.283Z,17.30
2018-11-04T08:47:36.905Z,17.30
2018-11-04T08:50:11.691Z,17.20
2018-11-04T08:52:45.100Z,17.20
2018-11-04T08:55:17.830Z,17.20
2018-11-04T08:57:50.385Z,17.20
2018-11-04T09:03:44.881Z,17.10
2018-11-04T09:06:18.401Z,17.00
2018-11-04T09:08:51.865Z,17.10
2018-11-04T09:11:25.052Z,17.10
2018-11-04T09:13:59.057Z,17.20
2018-11-04T09:16:31.970Z,17.10
2018-11-04T09:19:05.068Z,17.00
2018-11-04T09:21:38.411Z,17.00
2018-11-04T09:24:11.794Z,16.90
2018-11-04T09:26:44.835Z,16.90
2018-11-04T09:29:18.537Z,16.90
2018-11-04T09:35:12.838Z,16.80
2018-11-04T09:41:07.428Z,16.80
2018-11-04T09:43:40.257Z,16.90
2018-11-04T09:46:13.404Z,16.90
2018-11-04T09:48:46.507Z,17.00
2018-11-04T09:51:19.393Z,17.00
2018-11-04T09:53:52.339Z,17.10
2018-11-04T09:56:25.682Z,17.10
2018-11-04T09:58:58.679Z,17.20
2018-11-04T10:01:32.086Z,17.20
2018-11-04T10:04:05.136Z,17.20
2018-11-04T10:06:38.553Z,17.20
2018-11-04T10:09:12.919Z,17.20
2018-11-04T10:11:45.976Z,17.20
2018-11-04T10:14:19.024Z,17.20
2018-11-04T10:16:52.229Z,17.20
2018-11-04T10:19:25.235Z,17.20
2018-11-04T10:21:58.317Z,17.20
2018-11-04T10:24:31.487Z,17.30
2018-11-04T10:27:04.355Z,17.30
2018-11-04T10:29:37.353Z,17.30
2018-11-04T10:32:10.703Z,17.30
2018-11-04T10:34:43.449Z,17.30
2018-11-04T10:37:17.433Z,17.30
2018-11-04T10:39:50.623Z,17.30
2018-11-04T10:42:23.532Z,17.30
2018-11-04T10:45:27.779Z,17.30
2018-11-04T10:48:01.045Z,17.30
2018-11-04T10:50:34.152Z,17.30
2018-11-04T10:53:07.402Z,17.30
2018-11-04T10:55:40.597Z,17.30
2018-11-04T10:58:13.740Z,17.30
2018-11-04T11:00:51.151Z,17.20
2018-11-04T11:03:24.064Z,17.20
2018-11-04T11:05:57.167Z,17.20
2018-11-04T11:08:30.238Z,17.20
2018-11-04T11:11:02.981Z,17.20
2018-11-04T11:13:36.048Z,17.10
2018-11-04T11:16:08.912Z,17.20
2018-11-04T11:18:42.089Z,17.10
2018-11-04T11:21:15.039Z,17.20
2018-11-04T11:23:48.316Z,17.20
2018-11-04T11:26:21.154Z,17.10
2018-11-04T11:28:54.304Z,17.10
2018-11-04T11:31:27.584Z,17.10
2018-11-04T11:34:00.718Z,17.10
2018-11-04T11:36:33.540Z,17.10
2018-11-04T11:39:07.672Z,17.10
2018-11-04T11:41:40.862Z,17.10
2018-11-04T11:44:14.151Z,17.10
2018-11-04T11:46:46.977Z,17.20
2018-11-04T11:49:20.094Z,17.20
2018-11-04T11:51:53.298Z,17.20
2018-11-04T11:54:26.595Z,17.20
2018-11-04T11:56:59.784Z,17.20
2018-11-04T11:59:32.907Z,17.20
2018-11-04T12:02:05.773Z,17.30
2018-11-04T12:04:38.886Z,17.30
2018-11-04T12:07:12.064Z,17.30
2018-11-04T12:09:45.395Z,17.30
2018-11-04T12:12:18.537Z,17.30
2018-11-04T12:14:51.595Z,17.40
2018-11-04T12:17:24.484Z,17.40
2018-11-04T12:19:57.798Z,17.40
2018-11-04T12:23:03.827Z,17.40
2018-11-04T12:25:38.849Z,17.30
2018-11-04T12:28:13.183Z,17.30
2018-11-04T12:30:46.649Z,17.30
2018-11-04T12:33:19.727Z,17.30
2018-11-04T12:35:53.193Z,17.30
2018-11-04T12:38:26.072Z,17.30
2018-11-04T12:40:59.250Z,17.30
2018-11-04T12:46:55.148Z,17.20
2018-11-04T12:49:28.213Z,17.20
2018-11-04T12:52:01.077Z,17.20
2018-11-04T12:54:34.368Z,17.20
2018-11-04T12:57:08.415Z,17.30
2018-11-04T12:59:41.147Z,17.30
2018-11-04T13:02:14.461Z,17.30
2018-11-04T13:04:47.590Z,17.30
2018-11-04T13:07:20.843Z,17.30
2018-11-04T13:09:53.722Z,17.20
2018-11-04T13:12:27.099Z,17.20
2018-11-04T13:15:00.043Z,17.20
2018-11-04T13:17:33.303Z,17.20
2018-11-04T13:20:06.947Z,17.30
2018-11-04T13:22:40.433Z,17.30
2018-11-04T13:25:13.912Z,17.30
2018-11-04T13:27:49.753Z,17.40
2018-11-04T13:30:22.449Z,17.40
2018-11-04T13:32:55.005Z,17.40
2018-11-04T13:35:27.533Z,17.50
2018-11-04T13:38:01.533Z,17.60
2018-11-04T13:40:34.807Z,17.60
2018-11-04T13:43:07.718Z,17.70
2018-11-04T13:45:40.786Z,17.80
2018-11-04T13:48:13.729Z,17.80
2018-11-04T13:50:46.796Z,17.80
2018-11-04T13:53:19.552Z,18.00
2018-11-04T13:55:52.338Z,18.00
2018-11-04T13:58:27.026Z,18.10
2018-11-04T14:01:00.009Z,18.20
2018-11-04T14:03:35.495Z,18.50
2018-11-04T14:06:08.686Z,18.50
2018-11-04T14:08:42.112Z,18.50
2018-11-04T14:14:11.807Z,18.70
2018-11-04T14:20:13.789Z,19.00
2018-11-04T14:22:46.853Z,19.10
2018-11-04T14:25:19.436Z,19.20
2018-11-04T14:27:53.368Z,19.40
2018-11-04T14:30:26.781Z,19.60
2018-11-04T14:32:59.968Z,19.80
2018-11-04T14:38:53.764Z,20.10
2018-11-04T14:41:27.384Z,20.10
2018-11-04T14:44:01.830Z,20.50
2018-11-04T14:46:34.816Z,20.80
2018-11-04T14:49:07.972Z,21.10
2018-11-04T14:51:40.617Z,21.20
2018-11-04T14:54:13.857Z,21.40
2018-11-04T14:56:47.200Z,21.10
2018-11-04T14:59:20.399Z,21.20
2018-11-04T15:01:53.861Z,21.50
2018-11-04T15:04:27.782Z,21.50
2018-11-04T15:07:01.141Z,21.40
2018-11-04T15:09:34.051Z,21.40
2018-11-04T15:12:06.948Z,22.00
2018-11-04T15:14:40.069Z,22.30
2018-11-04T15:17:13.105Z,22.60
2018-11-04T15:19:46.386Z,22.20
2018-11-04T15:22:19.611Z,21.90
2018-11-04T15:24:53.145Z,22.00
2018-11-04T15:27:26.361Z,22.10
2018-11-04T15:30:00.133Z,22.00
2018-11-04T15:32:32.757Z,22.20
2018-11-04T15:35:06.315Z,22.30
2018-11-04T15:37:39.760Z,22.40
2018-11-04T15:40:14.960Z,22.40
2018-11-04T15:42:48.027Z,22.40
2018-11-04T15:45:21.446Z,22.20
2018-11-04T15:47:54.846Z,22.20
2018-11-04T15:50:28.083Z,22.40
2018-11-04T15:53:01.296Z,23.00
2018-11-04T15:55:35.173Z,23.90
2018-11-04T15:58:09.178Z,24.40
2018-11-04T16:00:42.551Z,24.40
2018-11-04T16:03:15.903Z,24.30
2018-11-04T16:05:50.168Z,23.80
2018-11-04T16:08:23.026Z,24.20
2018-11-04T16:10:56.114Z,24.40
2018-11-04T16:13:28.794Z,24.70
2018-11-04T16:16:02.228Z,24.50
2018-11-04T16:18:35.415Z,24.80
2018-11-04T16:21:11.074Z,25.10
2018-11-04T16:23:53.600Z,26.20
2018-11-04T16:26:27.772Z,26.30
2018-11-04T16:29:00.945Z,26.40
2018-11-04T16:31:34.142Z,25.10
2018-11-04T16:34:07.373Z,24.20
2018-11-04T16:36:41.049Z,23.90
2018-11-04T16:39:15.645Z,24.20
2018-11-04T16:41:50.931Z,24.40
2018-11-04T16:44:24.127Z,24.40
2018-11-04T16:46:57.519Z,24.10
2018-11-04T16:49:30.722Z,24.40
2018-11-04T16:55:35.859Z,24.10
2018-11-04T16:58:09.393Z,24.10
2018-11-04T17:00:43.347Z,24.40
2018-11-04T17:03:17.005Z,24.90
2018-11-04T17:05:51.197Z,25.80
2018-11-04T17:08:24.816Z,25.70
2018-11-04T17:10:58.625Z,25.60
2018-11-04T17:13:32.428Z,25.70
2018-11-04T17:16:06.920Z,25.10
2018-11-04T17:18:40.604Z,25.00
2018-11-04T17:21:14.654Z,25.00
2018-11-04T17:23:48.299Z,24.50
2018-11-04T17:26:22.214Z,24.60
2018-11-04T17:28:55.664Z,24.50
2018-11-04T17:31:29.604Z,24.70
2018-11-04T17:34:03.975Z,24.70
2018-11-04T17:36:38.365Z,24.20
2018-11-04T17:39:14.060Z,24.40
2018-11-04T17:41:47.891Z,24.30
2018-11-04T17:44:22.070Z,23.90
2018-11-04T17:46:56.045Z,23.70
2018-11-04T17:49:29.838Z,23.90
2018-11-04T17:52:03.851Z,24.30
2018-11-04T17:54:37.297Z,24.20
2018-11-04T17:57:12.498Z,24.00
2018-11-04T17:59:48.127Z,23.80
2018-11-04T18:02:21.982Z,23.50
2018-11-04T18:04:56.029Z,23.80
2018-11-04T18:07:29.748Z,23.90
2018-11-04T18:10:03.810Z,24.00
2018-11-04T18:12:37.489Z,24.50
2018-11-04T18:15:11.966Z,24.30
2018-11-04T18:17:45.907Z,24.40
2018-11-04T18:20:19.349Z,24.40
2018-11-04T18:22:53.515Z,24.20
2018-11-04T18:28:58.220Z,22.90
2018-11-04T18:31:32.324Z,22.50
2018-11-04T18:34:06.233Z,22.20
2018-11-04T18:36:39.843Z,22.10
2018-11-04T18:39:13.715Z,22.10
2018-11-04T18:41:47.108Z,22.20
2018-11-04T18:44:20.788Z,22.40
2018-11-04T18:50:25.428Z,22.80
2018-11-04T18:52:58.451Z,23.00
2018-11-04T18:58:52.792Z,23.70
2018-11-04T19:01:26.123Z,24.60
2018-11-04T19:03:59.038Z,24.80
2018-11-04T19:06:32.386Z,24.80
2018-11-04T19:09:06.333Z,24.80
2018-11-04T19:11:39.481Z,24.40
2018-11-04T19:17:33.946Z,23.60
2018-11-04T19:20:07.003Z,23.50
2018-11-04T19:22:40.454Z,23.50
2018-11-04T19:25:15.253Z,23.10
2018-11-04T19:27:48.517Z,22.40
2018-11-04T19:30:21.509Z,21.80
2018-11-04T19:32:54.891Z,21.60
2018-11-04T19:35:28.110Z,21.30
2018-11-04T19:38:04.026Z,21.20
2018-11-04T19:40:39.635Z,21.20
2018-11-04T19:43:13.232Z,21.40
2018-11-04T19:45:46.582Z,21.60
2018-11-04T19:48:21.228Z,21.80
2018-11-04T19:50:55.599Z,22.10
2018-11-04T19:53:28.872Z,22.50
2018-11-04T19:56:02.179Z,22.60
2018-11-04T19:58:36.129Z,22.70
2018-11-04T20:01:09.864Z,22.80
2018-11-04T20:03:43.306Z,22.80
2018-11-04T20:06:16.409Z,22.80
2018-11-04T20:08:54.068Z,22.90
2018-11-04T20:11:27.153Z,22.50
2018-11-04T20:14:05.167Z,22.40
2018-11-04T20:16:38.006Z,22.40
2018-11-04T20:19:17.856Z,22.40
2018-11-04T20:21:51.392Z,22.30
2018-11-04T20:24:28.703Z,22.40
2018-11-04T20:27:02.445Z,22.50
2018-11-04T20:29:36.970Z,22.20
2018-11-04T20:32:14.436Z,22.00
2018-11-04T20:34:47.815Z,22.00
2018-11-04T20:37:23.841Z,22.00
2018-11-04T20:40:05.751Z,22.00
2018-11-04T20:42:50.099Z,22.00
2018-11-04T20:48:56.161Z,22.00
2018-11-04T20:51:44.912Z,21.90
2018-11-04T20:54:28.909Z,22.00
2018-11-04T20:57:13.895Z,21.80
2018-11-04T21:00:00.077Z,21.90
2018-11-04T21:02:45.754Z,21.90
2018-11-04T21:05:22.198Z,22.00
2018-11-04T21:11:03.925Z,22.20
2018-11-04T21:13:50.376Z,22.30
2018-11-04T21:16:35.860Z,22.30
2018-11-04T21:19:18.314Z,22.20
2018-11-04T21:21:56.813Z,21.90
2018-11-04T21:24:28.592Z,21.70
2018-11-04T21:26:59.695Z,21.70
2018-11-04T21:29:30.906Z,21.80
2018-11-04T21:32:01.973Z,21.80
2018-11-04T21:34:33.024Z,21.80
2018-11-04T21:37:04.581Z,22.00
2018-11-04T21:39:35.726Z,21.90
2018-11-04T21:42:07.283Z,22.00
2018-11-04T21:44:38.437Z,22.00
2018-11-04T21:47:11.532Z,22.00
2018-11-04T21:53:55.456Z,22.00
2018-11-04T21:59:48.129Z,22.00
2018-11-04T22:02:19.608Z,22.10
2018-11-04T22:04:52.532Z,22.10
2018-11-04T22:07:26.635Z,21.90
2018-11-04T22:09:59.595Z,21.90
2018-11-04T22:12:32.703Z,22.00
2018-11-04T22:15:06.055Z,21.90
2018-11-04T22:17:39.326Z,21.90
2018-11-04T22:20:11.592Z,21.90
2018-11-04T22:22:42.566Z,21.90
2018-11-04T22:25:13.445Z,21.90
2018-11-04T22:27:46.258Z,22.00
2018-11-04T22:30:21.114Z,22.10
2018-11-04T22:32:52.416Z,22.20
2018-11-04T22:35:25.286Z,22.20
2018-11-04T22:37:56.476Z,22.20
2018-11-04T22:40:27.380Z,22.30
2018-11-04T22:42:59.092Z,22.20
2018-11-04T22:45:30.441Z,22.20
2018-11-04T22:48:01.953Z,22.20
2018-11-04T22:50:32.942Z,22.00
2018-11-04T22:53:04.266Z,21.90
2018-11-04T22:55:37.215Z,21.80
2018-11-04T22:58:09.762Z,21.70
2018-11-04T23:00:44.240Z,21.60
2018-11-04T23:03:15.573Z,21.40
2018-11-04T23:05:46.608Z,21.40
2018-11-04T23:08:19.479Z,21.40
2018-11-04T23:10:52.212Z,21.20
2018-11-04T23:13:24.916Z,21.20
2018-11-04T23:15:58.044Z,21.10
2018-11-04T23:18:31.400Z,20.90
2018-11-04T23:21:04.476Z,20.80
2018-11-04T23:23:37.600Z,20.60
2018-11-04T23:26:10.220Z,20.50
2018-11-04T23:28:41.463Z,20.50
2018-11-04T23:31:12.247Z,20.30
2018-11-04T23:33:44.612Z,20.30
2018-11-04T23:36:17.051Z,20.30
2018-11-04T23:38:49.861Z,20.20
2018-11-04T23:41:22.945Z,20.20
2018-11-04T23:43:56.134Z,20.20
2018-11-04T23:46:29.343Z,20.20
2018-11-04T23:49:04.812Z,20.10
2018-11-04T23:51:37.864Z,20.10
2018-11-04T23:54:12.126Z,20.10
2018-11-04T23:56:44.862Z,20.20
2018-11-04T23:59:17.726Z,20.20
